Phitsanulok, Thailand
Current Conditions -  °F | °C
As of 9:00 PM on Sunday 21 Dec 2014 (Local Time) from VTPP Reporting Station
Haze Haze  
Wind Chill: 77°   Ceiling: Unl
Heat Index: 79°   Visibility: 3mi
Dew Point: 57°   Wind: 3mph
Humidity: 50%   Direction: 100°E
Pressure: 29.94"   Gusts: NA
Location:  16.82°N, 100.27°E
Report Text: VTPP 211400Z 10003KT 5000 HZ FEW028 SCT300 25/14 Q1014
Loading
Personal Weather Stations






























Interactive Weather Map New forecast layout! Learn more

10-Day Weather Forecast

Advertisements
Track Severe Weather on mobile